Time;durP1;ratioP1;P1;durP2;ratioP2;P2;SDS_P1;SDS_P2;PMS_P1;PMS_P2;Temp;Humidity;BMP_temperature;BMP_pressure;BME280_temperature;BME280_humidity;BME280_pressure;Samples;Min_cycle;Max_cycle;Signal;HPM_P1;HPM_P2
2024/01/23 00:01:31;;;;;;;1.50;0.88;;;;;;;7.21;77.35;97184.81;6308179;22;20023;-80
2024/01/23 00:03:58;;;;;;;4.40;1.10;;;;;;;7.20;77.19;97185.78;6306921;22;20023;-80
2024/01/23 00:06:27;;;;;;;2.65;0.52;;;;;;;7.19;77.12;97184.13;6305907;22;20054;-80
2024/01/23 00:08:57;;;;;;;1.05;0.63;;;;;;;7.19;77.51;97195.34;6305146;22;20107;-80
2024/01/23 00:11:24;;;;;;;1.58;0.88;;;;;;;7.18;77.00;97185.09;6330439;22;20286;-80
2024/01/23 00:13:52;;;;;;;1.17;0.60;;;;;;;7.16;76.84;97187.84;6332343;22;20018;-80
2024/01/23 00:16:20;;;;;;;0.85;0.65;;;;;;;7.17;76.83;97178.28;6317742;22;20019;-80
2024/01/23 00:18:47;;;;;;;1.30;0.52;;;;;;;7.16;77.03;97179.25;6308664;22;20050;-80
2024/01/23 00:21:15;;;;;;;1.45;0.43;;;;;;;7.14;76.97;97188.94;6309184;22;20348;-80
2024/01/23 00:23:44;;;;;;;2.45;0.70;;;;;;;7.13;76.74;97176.97;6307666;22;20506;-80
2024/01/23 00:26:12;;;;;;;3.33;0.47;;;;;;;7.12;76.76;97196.06;6307401;22;20015;-79
2024/01/23 00:28:40;;;;;;;1.52;0.35;;;;;;;7.11;76.74;97194.44;6312741;22;20031;-79
2024/01/23 00:31:07;;;;;;;2.13;0.60;;;;;;;7.09;76.77;97186.78;6309212;22;20393;-80
2024/01/23 00:33:35;;;;;;;3.42;0.60;;;;;;;7.07;76.29;97191.31;6306443;22;20054;-80
2024/01/23 00:36:03;;;;;;;1.73;0.40;;;;;;;7.05;76.02;97190.63;6308635;22;20131;-80
2024/01/23 00:38:30;;;;;;;1.60;0.60;;;;;;;7.03;75.47;97184.78;6308435;22;20073;-81
2024/01/23 00:40:59;;;;;;;2.17;0.57;;;;;;;7.00;75.51;97201.44;6310571;22;20076;-81
2024/01/23 00:43:27;;;;;;;2.53;0.73;;;;;;;7.00;76.19;97198.84;6307856;22;20098;-81
2024/01/23 00:45:55;;;;;;;1.35;0.65;;;;;;;6.97;75.83;97203.50;6308197;22;20058;-80
2024/01/23 00:48:22;;;;;;;1.92;0.85;;;;;;;6.95;75.92;97206.25;6307952;22;20440;-81
2024/01/23 00:50:50;;;;;;;3.13;0.88;;;;;;;6.93;75.97;97208.19;6308471;22;20114;-81
2024/01/23 00:53:17;;;;;;;3.20;0.93;;;;;;;6.91;76.29;97204.06;6307682;22;20023;-80
2024/01/23 00:55:45;;;;;;;0.95;0.60;;;;;;;6.89;76.48;97209.44;6308446;22;20098;-81
2024/01/23 00:58:15;;;;;;;3.70;0.70;;;;;;;6.87;76.04;97221.72;6308518;22;20023;-80
2024/01/23 01:00:44;;;;;;;2.90;0.68;;;;;;;6.84;76.39;97203.84;6308813;22;20408;-80
2024/01/23 01:03:12;;;;;;;3.03;0.70;;;;;;;6.83;76.33;97201.41;6307950;22;20030;-81
2024/01/23 01:05:41;;;;;;;3.47;0.80;;;;;;;6.81;76.71;97211.91;6308179;22;20023;-80
2024/01/23 01:08:09;;;;;;;3.47;1.20;;;;;;;6.80;76.64;97202.50;6308328;22;20023;-81
2024/01/23 01:10:37;;;;;;;0.90;0.32;;;;;;;6.78;76.91;97201.84;6307151;22;20054;-80
2024/01/23 01:13:04;;;;;;;2.60;1.17;;;;;;;6.76;77.30;97206.34;6307625;22;20069;-80
2024/01/23 01:15:33;;;;;;;2.05;0.52;;;;;;;6.76;76.91;97203.75;6308015;22;20023;-81
2024/01/23 01:18:01;;;;;;;3.03;0.60;;;;;;;6.71;76.76;97198.16;6307664;22;20098;-81
2024/01/23 01:20:28;;;;;;;3.13;0.85;;;;;;;6.69;77.10;97206.09;6307836;22;20416;-80
2024/01/23 01:22:56;;;;;;;3.13;0.80;;;;;;;6.67;77.44;97197.66;6307372;22;20109;-80
2024/01/23 01:25:25;;;;;;;2.97;0.57;;;;;;;6.67;77.33;97204.59;6312052;22;20492;-81
2024/01/23 01:27:52;;;;;;;2.20;0.70;;;;;;;6.65;77.42;97194.38;6309509;22;20016;-80
2024/01/23 01:30:21;;;;;;;1.55;0.60;;;;;;;6.63;77.39;97204.06;6308097;22;20103;-80
2024/01/23 01:32:50;;;;;;;2.72;0.57;;;;;;;6.59;76.62;97213.91;6307616;22;20016;-80
2024/01/23 01:35:17;;;;;;;2.72;0.82;;;;;;;6.57;76.63;97200.25;6307804;22;20082;-80
2024/01/23 01:37:45;;;;;;;2.42;0.73;;;;;;;6.58;77.04;97207.09;6307833;22;20068;-81
2024/01/23 01:40:14;;;;;;;2.22;0.52;;;;;;;6.58;76.63;97225.25;6307936;22;20089;-80
2024/01/23 01:42:42;;;;;;;2.50;0.88;;;;;;;6.58;76.67;97208.84;6307158;22;20046;-80
2024/01/23 01:45:11;;;;;;;5.03;1.20;;;;;;;6.58;76.56;97229.59;6307086;22;20522;-81
2024/01/23 01:47:41;;;;;;;1.65;0.70;;;;;;;6.56;76.69;97216.78;6312608;22;20015;-81
2024/01/23 01:50:10;;;;;;;4.55;0.57;;;;;;;6.57;76.29;97220.19;6314384;22;20026;-80
2024/01/23 01:52:39;;;;;;;1.65;0.52;;;;;;;6.59;76.77;97239.81;6306930;22;20058;-79
2024/01/23 01:55:07;;;;;;;4.22;0.73;;;;;;;6.62;76.73;97243.91;6308023;22;20050;-80
2024/01/23 01:57:37;;;;;;;3.33;0.98;;;;;;;6.64;77.80;97256.72;6308871;22;20356;-80
2024/01/23 02:00:07;;;;;;;3.03;0.65;;;;;;;6.64;77.15;97251.53;6307419;22;20026;-80
2024/01/23 02:02:36;;;;;;;3.15;0.70;;;;;;;6.63;76.81;97257.69;6309200;22;20023;-80
2024/01/23 02:05:04;;;;;;;2.53;0.60;;;;;;;6.59;76.55;97265.75;6306994;22;20576;-81
2024/01/23 02:07:33;;;;;;;3.20;0.75;;;;;;;6.58;76.57;97277.06;6306975;22;20094;-80
2024/01/23 02:10:01;;;;;;;2.85;0.77;;;;;;;6.56;76.81;97268.63;6306904;22;20089;-81
2024/01/23 02:12:29;;;;;;;1.60;0.65;;;;;;;6.53;77.22;97274.06;6306922;22;20023;-80
2024/01/23 02:14:56;;;;;;;1.52;0.40;;;;;;;6.49;76.74;97285.66;6306972;22;20027;-80
2024/01/23 02:17:24;;;;;;;3.10;0.50;;;;;;;6.47;77.13;97286.78;6307020;22;20015;-80
2024/01/23 02:19:51;;;;;;;3.47;0.65;;;;;;;6.46;77.22;97279.97;6307346;22;20045;-80
2024/01/23 02:22:19;;;;;;;3.95;0.80;;;;;;;6.45;77.25;97280.91;6306406;22;20480;-80
2024/01/23 02:30:13;;;;;;;2.17;0.60;;;;;;;6.38;77.95;97285.81;6242621;22;20071;-80
2024/01/23 02:32:44;;;;;;;3.15;0.75;;;;;;;6.39;77.80;97279.69;6253014;22;20020;-81
2024/01/23 02:35:13;;;;;;;4.25;1.27;;;;;;;6.39;77.63;97277.13;6282768;22;20057;-80
2024/01/23 02:37:46;;;;;;;3.85;0.90;;;;;;;6.38;78.04;97270.28;6283404;22;20505;-81
2024/01/23 02:40:44;;;;;;;;;;;;;;;6.40;78.92;97264.00;6281947;22;20057;-80
2024/01/23 02:44:04;;;;;;;3.22;0.60;;;;;;;6.35;77.95;97270.56;6279820;22;19915;-81
2024/01/23 02:54:15;;;;;;;2.53;0.80;;;;;;;6.26;77.77;97286.94;6277618;22;20024;-81
2024/01/23 03:01:27;;;;;;;5.38;0.93;;;;;;;6.24;78.22;97296.63;6188162;23;20101;-80
2024/01/23 03:22:21;;;;;;;4.78;0.60;;;;;;;5.97;77.51;97339.56;6143849;23;20037;-81
2024/01/23 04:34:58;;;;;;;6.28;1.33;;;;;;;6.16;75.85;97368.06;6214074;23;20364;-81
2024/01/23 04:37:25;;;;;;;4.68;1.25;;;;;;;6.17;75.80;97379.25;6218111;23;20434;-81
2024/01/23 04:39:53;;;;;;;5.93;1.13;;;;;;;6.18;76.58;97386.06;6217967;23;20474;-81
2024/01/23 04:42:21;;;;;;;8.65;1.95;;;;;;;6.21;75.88;97403.09;6220011;23;20021;-81
2024/01/23 04:44:49;;;;;;;6.65;1.35;;;;;;;6.21;75.58;97387.56;6219978;23;20481;-81
2024/01/23 04:47:16;;;;;;;8.02;1.38;;;;;;;6.21;75.73;97403.94;6218984;23;20048;-81
2024/01/23 04:49:44;;;;;;;7.03;1.23;;;;;;;6.22;75.84;97399.56;6219329;23;20044;-81
2024/01/23 04:52:13;;;;;;;10.95;2.08;;;;;;;6.22;75.27;97405.56;6218266;23;20039;-81
2024/01/23 04:54:41;;;;;;;12.50;1.95;;;;;;;6.22;74.83;97409.94;6217454;23;20055;-81
2024/01/23 04:57:09;;;;;;;12.73;2.38;;;;;;;6.21;74.74;97423.81;6219824;23;20020;-81
2024/01/23 04:59:37;;;;;;;4.78;1.10;;;;;;;6.18;74.43;97423.13;6218777;23;20056;-81
2024/01/23 05:02:05;;;;;;;13.48;2.47;;;;;;;6.18;74.17;97435.28;6218805;23;20096;-81
2024/01/23 05:04:32;;;;;;;9.52;1.73;;;;;;;6.18;75.01;97424.91;6216868;23;20234;-81
2024/01/23 05:07:01;;;;;;;5.60;1.80;;;;;;;6.17;74.82;97426.69;6217986;23;20051;-79
2024/01/23 05:09:31;;;;;;;9.30;1.30;;;;;;;6.19;75.19;97432.56;6215107;23;20047;-81
2024/01/23 05:11:59;;;;;;;6.75;1.85;;;;;;;6.21;75.06;97447.16;6217608;23;20025;-80
2024/01/23 05:14:26;;;;;;;5.43;1.40;;;;;;;6.20;74.81;97464.47;6216808;23;20528;-80
2024/01/23 05:16:54;;;;;;;5.18;1.15;;;;;;;6.19;74.74;97458.47;6216094;23;20734;-80
2024/01/23 05:19:21;;;;;;;10.63;2.58;;;;;;;6.19;74.70;97476.59;6217333;23;20056;-80
2024/01/23 05:21:49;;;;;;;8.00;2.35;;;;;;;6.17;74.86;97470.75;6217143;23;20032;-79
2024/01/23 05:24:17;;;;;;;5.53;1.90;;;;;;;6.17;75.18;97468.16;6216793;23;20025;-80
2024/01/23 05:26:46;;;;;;;6.75;2.10;;;;;;;6.17;75.18;97470.75;6217272;23;20362;-80
2024/01/23 05:29:13;;;;;;;10.73;2.80;;;;;;;6.16;75.41;97484.63;6216393;23;20027;-81
2024/01/23 05:31:41;;;;;;;4.85;2.15;;;;;;;6.18;75.35;97492.28;6216709;23;20107;-81
2024/01/23 05:34:09;;;;;;;10.18;2.78;;;;;;;6.16;75.94;97500.16;6215732;23;20027;-80
2024/01/23 05:36:36;;;;;;;5.07;2.58;;;;;;;6.14;75.81;97496.06;6217213;23;20020;-80
2024/01/23 05:39:04;;;;;;;6.40;1.35;;;;;;;6.11;75.84;97506.72;6216449;23;20410;-79
2024/01/23 05:41:32;;;;;;;6.47;1.88;;;;;;;6.08;76.13;97491.41;6218565;23;20100;-79
2024/01/23 05:44:01;;;;;;;4.82;1.35;;;;;;;6.05;76.59;97500.28;6216535;23;20051;-81
2024/01/23 05:46:28;;;;;;;6.47;1.58;;;;;;;6.04;76.36;97505.59;6216906;23;20112;-81
2024/01/23 05:48:56;;;;;;;11.98;2.92;;;;;;;6.03;76.36;97525.47;6219813;23;20040;-81
2024/01/23 05:51:24;;;;;;;15.20;2.83;;;;;;;5.98;76.13;97509.53;6218884;23;20086;-81
2024/01/23 05:53:50;;;;;;;8.60;2.17;;;;;;;5.92;76.33;97518.59;6213949;23;20025;-81
2024/01/23 05:56:18;;;;;;;5.78;2.10;;;;;;;5.84;76.77;97520.19;6214434;23;20024;-80
2024/01/23 05:58:46;;;;;;;6.18;1.45;;;;;;;5.80;77.48;97514.47;6214342;23;20021;-80
2024/01/23 06:01:15;;;;;;;8.00;2.05;;;;;;;5.80;77.52;97534.38;6214417;23;20060;-81
2024/01/23 06:03:42;;;;;;;8.40;1.63;;;;;;;5.77;77.39;97540.59;6213908;23;20075;-80
2024/01/23 06:06:10;;;;;;;8.18;1.98;;;;;;;5.76;77.62;97550.13;6214387;23;20024;-80
2024/01/23 06:08:37;;;;;;;8.98;1.98;;;;;;;5.78;77.77;97561.19;6216383;23;20021;-81
2024/01/23 06:11:05;;;;;;;6.05;1.55;;;;;;;5.78;77.62;97558.59;6216349;23;20016;-81
2024/01/23 06:13:33;;;;;;;6.15;1.92;;;;;;;5.79;77.83;97564.59;6215708;23;20048;-81
2024/01/23 06:16:00;;;;;;;7.90;2.35;;;;;;;5.80;77.84;97565.44;6215601;23;20355;-80
2024/01/23 06:18:30;;;;;;;7.10;1.40;;;;;;;5.80;78.39;97576.59;6216320;23;20474;-81
2024/01/23 06:20:58;;;;;;;14.75;1.55;;;;;;;5.78;77.84;97594.84;6216141;23;20027;-81
2024/01/23 06:23:26;;;;;;;12.75;2.05;;;;;;;5.79;78.22;97590.47;6215797;23;20020;-81
2024/01/23 06:25:54;;;;;;;10.25;2.85;;;;;;;5.77;78.12;97608.75;6216708;23;20051;-80
2024/01/23 06:28:24;;;;;;;4.80;1.48;;;;;;;5.76;78.08;97622.63;6215802;23;20017;-80
2024/01/23 06:30:51;;;;;;;8.40;1.50;;;;;;;5.75;78.39;97615.81;6216531;23;20407;-81
2024/01/23 06:33:19;;;;;;;4.18;1.60;;;;;;;5.77;78.90;97618.25;6215707;23;20115;-80
2024/01/23 06:35:48;;;;;;;11.30;3.10;;;;;;;5.79;78.99;97626.72;6216516;23;20028;-81
2024/01/23 06:38:16;;;;;;;9.05;2.28;;;;;;;5.81;78.90;97618.84;6216102;23;20103;-80
2024/01/23 06:40:43;;;;;;;9.55;1.58;;;;;;;5.78;78.94;97635.47;6215665;23;20021;-81
2024/01/23 06:43:11;;;;;;;7.90;1.90;;;;;;;5.77;78.74;97634.66;6215514;23;20370;-81
2024/01/23 06:45:38;;;;;;;5.47;1.35;;;;;;;5.75;78.68;97641.72;6215255;23;20031;-81
2024/01/23 06:48:07;;;;;;;7.10;2.10;;;;;;;5.74;78.41;97659.94;6215193;23;20074;-81
2024/01/23 06:50:34;;;;;;;6.07;1.83;;;;;;;5.73;78.23;97658.31;6215886;23;20025;-81
2024/01/23 06:53:04;;;;;;;4.32;1.60;;;;;;;5.70;78.59;97661.16;6215252;23;20052;-81
2024/01/23 06:55:31;;;;;;;6.00;1.45;;;;;;;5.69;78.45;97657.75;6216007;23;20047;-80
2024/01/23 06:57:59;;;;;;;6.82;1.73;;;;;;;5.68;78.57;97661.25;6216125;23;20364;-81
2024/01/23 07:00:27;;;;;;;8.63;2.03;;;;;;;5.71;78.85;97670.56;6215771;23;20056;-80
2024/01/23 07:02:55;;;;;;;13.10;2.50;;;;;;;5.71;78.83;97680.94;6214945;23;20096;-81
2024/01/23 07:05:23;;;;;;;9.65;1.55;;;;;;;5.68;78.96;97676.78;6216300;23;20055;-80
2024/01/23 07:07:50;;;;;;;5.05;2.13;;;;;;;5.69;79.32;97693.16;6216237;23;20147;-80
2024/01/23 07:10:19;;;;;;;5.55;1.27;;;;;;;5.68;79.32;97697.50;6215882;23;20021;-80
2024/01/23 07:12:47;;;;;;;9.73;1.23;;;;;;;5.69;78.92;97699.16;6223448;23;20048;-81
2024/01/23 07:15:15;;;;;;;4.82;1.08;;;;;;;5.71;79.11;97704.22;6235918;23;20025;-81
2024/01/23 07:17:42;;;;;;;5.35;1.67;;;;;;;5.72;79.29;97713.63;6215985;23;20017;-80
2024/01/23 07:20:11;;;;;;;9.00;2.58;;;;;;;5.73;78.95;97726.44;6214980;23;20023;-81
2024/01/23 07:22:38;;;;;;;6.53;2.45;;;;;;;5.74;78.56;97733.25;6215216;23;20363;-80
2024/01/23 07:25:06;;;;;;;8.32;1.83;;;;;;;5.76;78.46;97751.28;6215460;23;20067;-80
2024/01/23 07:27:39;;;;;;;4.72;1.20;;;;;;;5.77;78.78;97742.53;6216230;23;20016;-80
2024/01/23 07:30:07;;;;;;;7.68;2.25;;;;;;;5.79;78.64;97756.19;6233274;23;20021;-81
2024/01/23 07:32:36;;;;;;;9.85;2.10;;;;;;;5.81;78.75;97763.84;6233784;23;20021;-81
2024/01/23 07:35:04;;;;;;;5.53;1.65;;;;;;;5.80;78.45;97765.63;6229665;23;20455;-80
2024/01/23 07:37:31;;;;;;;6.50;1.55;;;;;;;5.81;78.00;97769.03;6216368;23;20099;-81
2024/01/23 07:39:59;;;;;;;5.18;1.17;;;;;;;5.84;78.51;97773.94;6216281;23;20072;-81
2024/01/23 07:42:27;;;;;;;4.25;1.23;;;;;;;5.85;78.34;97775.59;6215798;23;20027;-80
2024/01/23 07:44:56;;;;;;;7.30;1.90;;;;;;;5.86;77.66;97778.06;6215709;23;20021;-81
2024/01/23 07:47:23;;;;;;;5.53;1.73;;;;;;;5.85;77.37;97778.19;6219333;23;20365;-81
2024/01/23 07:49:51;;;;;;;9.05;2.03;;;;;;;5.87;78.11;97784.06;6217353;23;20059;-81
2024/01/23 07:52:21;;;;;;;5.45;1.50;;;;;;;5.86;78.19;97774.63;6217364;23;20024;-81
2024/01/23 07:54:50;;;;;;;3.60;1.10;;;;;;;5.86;78.29;97787.59;6216049;23;20017;-81
2024/01/23 07:57:18;;;;;;;4.28;1.23;;;;;;;5.85;78.24;97804.09;6217054;23;20066;-81
2024/01/23 07:59:45;;;;;;;5.57;1.45;;;;;;;5.84;77.67;97805.84;6216888;23;20463;-81
2024/01/23 08:02:14;;;;;;;7.25;1.80;;;;;;;5.85;77.39;97814.44;6216025;23;20051;-81
2024/01/23 08:04:42;;;;;;;7.65;1.50;;;;;;;5.84;77.83;97812.78;6215005;23;20095;-81
2024/01/23 08:07:12;;;;;;;6.13;1.65;;;;;;;5.86;77.52;97818.66;6215936;23;20024;-80
2024/01/23 08:09:40;;;;;;;13.63;1.50;;;;;;;5.84;77.24;97810.19;6215342;23;20020;-81
2024/01/23 08:12:08;;;;;;;5.53;1.45;;;;;;;5.83;77.28;97821.50;6215429;23;20051;-80
2024/01/23 08:14:36;;;;;;;6.28;1.27;;;;;;;5.83;78.02;97813.75;6215952;23;20488;-80
2024/01/23 08:17:04;;;;;;;2.97;1.20;;;;;;;5.82;78.10;97817.28;6217870;23;20024;-80
2024/01/23 08:19:32;;;;;;;3.70;1.33;;;;;;;5.83;77.91;97818.91;6217589;23;20100;-80
2024/01/23 08:22:00;;;;;;;5.32;1.05;;;;;;;5.87;78.35;97825.50;6217499;23;20076;-80
2024/01/23 08:24:29;;;;;;;4.47;0.85;;;;;;;5.89;78.36;97836.56;6216937;23;20104;-80
2024/01/23 08:26:57;;;;;;;4.18;1.08;;;;;;;5.88;77.73;97837.50;6217833;23;20067;-80
2024/01/23 08:29:24;;;;;;;3.50;1.08;;;;;;;5.87;77.15;97835.88;6216593;23;20039;-81
2024/01/23 08:31:52;;;;;;;4.97;0.90;;;;;;;5.88;77.77;97848.69;6217195;23;20545;-80
2024/01/23 08:34:20;;;;;;;4.00;1.08;;;;;;;5.91;77.77;97837.25;6216719;23;20094;-81
2024/01/23 08:36:49;;;;;;;2.35;0.70;;;;;;;5.94;78.01;97839.59;6217454;23;20099;-80
2024/01/23 08:39:17;;;;;;;3.13;0.85;;;;;;;5.96;77.99;97838.56;6217416;23;20031;-80
2024/01/23 08:41:45;;;;;;;2.20;0.90;;;;;;;5.97;77.31;97842.00;6217556;23;20076;-80
2024/01/23 08:44:12;;;;;;;1.52;0.77;;;;;;;5.97;76.63;97847.19;6216989;23;20024;-80
2024/01/23 08:46:40;;;;;;;4.88;1.10;;;;;;;5.99;76.87;97837.50;6216990;23;20362;-80
2024/01/23 08:49:08;;;;;;;3.58;0.82;;;;;;;6.00;76.43;97846.91;6236000;23;20013;-80
2024/01/23 08:51:35;;;;;;;5.78;0.90;;;;;;;6.01;76.24;97853.72;6244106;23;20046;-81
2024/01/23 08:54:05;;;;;;;3.90;0.75;;;;;;;6.06;76.70;97850.81;6243156;23;20005;-81
2024/01/23 08:56:32;;;;;;;10.18;1.48;;;;;;;6.09;76.05;97858.31;6243495;23;20028;-81
2024/01/23 08:59:00;;;;;;;3.50;0.90;;;;;;;6.12;75.20;97858.06;6243541;23;20008;-81
2024/01/23 09:01:27;;;;;;;2.33;1.00;;;;;;;6.18;75.49;97853.22;6243786;23;20028;-81
2024/01/23 09:03:56;;;;;;;2.17;0.80;;;;;;;6.24;74.62;97849.31;6243237;23;20008;-81
2024/01/23 09:06:24;;;;;;;4.07;0.85;;;;;;;6.30;74.59;97848.00;6243458;23;20024;-80
2024/01/23 09:08:51;;;;;;;5.43;1.27;;;;;;;6.34;74.62;97855.41;6234816;23;20016;-81
2024/01/23 09:11:20;;;;;;;1.83;0.57;;;;;;;6.41;74.28;97863.50;6216512;23;20025;-81
2024/01/23 09:13:55;;;;;;;5.00;0.70;;;;;;;6.44;73.42;97868.44;6216438;23;20021;-81
2024/01/23 09:16:22;;;;;;;3.47;0.93;;;;;;;6.47;73.49;97863.00;6218088;23;20048;-81
2024/01/23 09:18:50;;;;;;;3.63;0.75;;;;;;;6.51;73.92;97863.56;6218333;23;20104;-80
2024/01/23 09:21:18;;;;;;;5.05;1.50;;;;;;;6.57;73.96;97865.66;6218778;23;20044;-81
2024/01/23 09:23:46;;;;;;;3.92;1.23;;;;;;;6.63;73.85;97872.94;6241473;23;20028;-81
2024/01/23 09:26:13;;;;;;;3.78;1.45;;;;;;;6.68;73.75;97868.19;6241000;23;20031;-81
2024/01/23 09:28:42;;;;;;;4.10;1.20;;;;;;;6.72;73.10;97886.94;6241367;23;20016;-81
2024/01/23 09:31:10;;;;;;;6.95;1.40;;;;;;;6.70;72.24;97886.22;6240118;23;20016;-81
2024/01/23 09:33:37;;;;;;;5.78;0.93;;;;;;;6.69;72.46;97884.56;6224494;23;20548;-82
2024/01/23 09:36:06;;;;;;;7.07;2.67;;;;;;;6.66;72.25;97900.41;6216805;23;20021;-81
2024/01/23 09:38:33;;;;;;;5.47;1.80;;;;;;;6.66;72.58;97892.63;6230624;23;20024;-81
2024/01/23 09:41:07;;;;;;;4.97;1.85;;;;;;;6.66;73.22;97900.41;6240944;23;20043;-81
2024/01/23 09:43:36;;;;;;;6.13;1.65;;;;;;;6.69;72.78;97910.50;6229711;23;20032;-80
2024/01/23 09:46:11;;;;;;;4.55;1.10;;;;;;;6.72;72.92;97923.25;6217192;23;20500;-81
2024/01/23 09:48:39;;;;;;;5.53;2.25;;;;;;;6.72;72.91;97944.78;6216243;23;20521;-81
2024/01/23 09:51:11;;;;;;;10.35;1.88;;;;;;;6.71;72.40;97926.75;6216379;23;20044;-81
2024/01/23 09:53:40;;;;;;;6.60;1.67;;;;;;;6.70;73.02;97935.50;6215632;23;20027;-80
2024/01/23 09:56:08;;;;;;;3.90;1.65;;;;;;;6.69;72.49;97936.44;6216310;23;20478;-81
2024/01/23 09:58:36;;;;;;;5.45;1.40;;;;;;;6.67;72.72;97939.16;6229032;23;20028;-81
2024/01/23 10:01:06;;;;;;;10.85;1.85;;;;;;;6.65;73.41;97940.22;6243253;23;20015;-81
2024/01/23 10:03:34;;;;;;;5.00;1.13;;;;;;;6.65;73.24;97963.56;6243246;23;20036;-80
2024/01/23 10:06:03;;;;;;;4.78;1.70;;;;;;;6.61;72.96;97965.59;6239247;23;20047;-81
2024/01/23 10:08:31;;;;;;;7.40;1.20;;;;;;;6.58;72.96;97964.06;6215989;23;20029;-80
2024/01/23 10:11:00;;;;;;;7.47;1.30;;;;;;;6.57;74.29;97962.41;6216427;23;20473;-81
2024/01/23 10:13:27;;;;;;;5.55;1.17;;;;;;;6.59;74.69;97965.69;6215905;23;20032;-80
2024/01/23 10:15:56;;;;;;;6.32;1.50;;;;;;;6.64;75.10;97969.69;6216184;23;20095;-81
2024/01/23 10:18:26;;;;;;;3.30;1.40;;;;;;;6.65;75.02;97971.31;6216257;23;20032;-81
2024/01/23 10:20:56;;;;;;;3.03;1.17;;;;;;;6.65;74.82;97966.16;6216296;23;20031;-80
2024/01/23 10:23:24;;;;;;;5.28;1.58;;;;;;;6.65;73.93;97963.56;6215834;23;20080;-81
2024/01/23 10:25:54;;;;;;;4.55;1.17;;;;;;;6.64;74.29;97975.69;6216680;23;20413;-81
2024/01/23 10:28:23;;;;;;;3.42;1.30;;;;;;;6.63;73.86;97968.06;6215812;23;20074;-80
2024/01/23 10:30:51;;;;;;;3.10;1.20;;;;;;;6.60;73.54;97964.78;6215700;23;20108;-80
2024/01/23 10:33:19;;;;;;;2.25;0.80;;;;;;;6.62;74.26;97966.41;6215542;23;20080;-81
2024/01/23 10:35:49;;;;;;;12.85;4.63;;;;;;;6.62;74.07;97971.59;6216271;23;20020;-80
2024/01/23 10:38:17;;;;;;;7.38;2.35;;;;;;;6.65;73.91;97966.16;6216113;23;20048;-80
2024/01/23 10:40:46;;;;;;;4.05;1.65;;;;;;;6.69;74.03;97967.53;6215763;23;20023;-80
2024/01/23 10:43:15;;;;;;;6.68;1.60;;;;;;;6.71;73.86;97968.25;6215263;23;20059;-80
2024/01/23 10:45:44;;;;;;;4.35;1.30;;;;;;;6.71;74.13;97963.91;6215548;23;20024;-80
2024/01/23 10:48:12;;;;;;;3.33;0.93;;;;;;;6.73;74.36;97962.00;6214841;23;20071;-79
2024/01/23 10:50:40;;;;;;;2.85;1.20;;;;;;;6.75;74.49;97959.28;6218937;23;20104;-82
2024/01/23 10:53:15;;;;;;;7.53;1.85;;;;;;;6.77;73.95;97962.56;6219695;23;20025;-78
2024/01/23 10:55:43;;;;;;;3.22;1.02;;;;;;;6.78;73.83;97961.66;6218564;23;20104;-80
2024/01/23 10:58:19;;;;;;;2.70;1.25;;;;;;;6.80;75.04;97959.75;6219668;23;20017;-80
2024/01/23 11:00:50;;;;;;;3.90;1.02;;;;;;;6.79;74.33;97958.09;6218860;23;20082;-81
2024/01/23 11:03:19;;;;;;;4.22;1.25;;;;;;;6.86;74.11;97953.22;6219053;23;20459;-77
2024/01/23 11:05:52;;;;;;;3.92;1.02;;;;;;;6.95;73.97;97955.91;6220243;23;20035;-79
2024/01/23 11:08:27;;;;;;;4.43;0.85;;;;;;;7.09;74.22;97934.00;6222585;23;20024;-79
2024/01/23 11:10:58;;;;;;;5.60;1.23;;;;;;;7.26;73.77;97950.78;6220176;23;20040;-79
2024/01/23 11:13:30;;;;;;;2.45;0.70;;;;;;;7.52;74.42;97951.19;6219180;23;20024;-81
2024/01/23 11:15:58;;;;;;;6.18;1.67;;;;;;;7.79;72.97;97945.44;6218967;23;20086;-80
2024/01/23 11:18:28;;;;;;;6.20;1.13;;;;;;;8.02;72.37;97947.81;6219268;23;20498;-79
2024/01/23 11:21:14;;;;;;;1.50;0.50;;;;;;;8.20;71.46;97961.84;6218591;23;20040;-81
2024/01/23 11:23:44;;;;;;;5.85;1.55;;;;;;;8.35;71.69;97970.09;6219492;23;20027;-78
2024/01/23 11:26:16;;;;;;;3.53;1.02;;;;;;;8.50;71.36;97967.13;6219615;23;20446;-83
2024/01/23 11:28:46;;;;;;;2.92;1.27;;;;;;;8.60;70.54;97962.75;6219522;23;20076;-77
2024/01/23 11:31:16;;;;;;;3.50;1.45;;;;;;;8.66;69.72;97952.63;6219179;23;20052;-79
2024/01/23 11:33:44;;;;;;;3.55;1.17;;;;;;;8.78;69.23;97962.91;6218856;23;20017;-79
2024/01/23 11:36:13;;;;;;;6.43;1.33;;;;;;;8.85;69.05;97954.41;6219178;23;20021;-78
2024/01/23 11:38:48;;;;;;;6.88;1.67;;;;;;;8.98;66.80;97961.09;6219855;23;20024;-79
2024/01/23 11:41:22;;;;;;;4.43;1.40;;;;;;;9.05;66.96;97957.81;6219277;23;20028;-79
2024/01/23 11:43:51;;;;;;;5.95;1.50;;;;;;;9.11;66.77;97937.41;6221279;23;20036;-78
2024/01/23 11:46:19;;;;;;;3.28;1.50;;;;;;;9.07;65.94;97947.25;6217820;23;20108;-79
2024/01/23 11:48:49;;;;;;;5.22;1.38;;;;;;;9.10;66.45;97956.59;6218886;23;20423;-80
2024/01/23 11:51:17;;;;;;;8.20;1.90;;;;;;;9.22;66.44;97952.84;6221327;23;20020;-79
2024/01/23 11:53:46;;;;;;;8.52;2.55;;;;;;;9.34;65.16;97945.72;6220828;23;20024;-79
2024/01/23 11:56:15;;;;;;;5.35;1.38;;;;;;;9.48;65.79;97953.06;6224599;23;20095;-84
2024/01/23 11:58:43;;;;;;;5.68;1.25;;;;;;;9.67;65.85;97952.19;6222579;23;20366;-79
2024/01/23 12:01:14;;;;;;;6.40;1.88;;;;;;;9.74;62.60;97945.44;6223465;23;20051;-79
2024/01/23 12:03:49;;;;;;;6.00;1.67;;;;;;;9.70;63.46;97957.13;6221168;23;20084;-78
2024/01/23 12:06:17;;;;;;;6.32;1.95;;;;;;;9.59;62.72;97949.47;6222272;23;20020;-80
2024/01/23 12:08:46;;;;;;;5.53;1.80;;;;;;;9.44;62.85;97939.50;6223757;23;20077;-78
2024/01/23 12:11:15;;;;;;;6.68;1.75;;;;;;;9.31;62.78;97943.38;6222915;23;20017;-78
2024/01/23 12:13:44;;;;;;;9.25;2.70;;;;;;;9.23;64.92;97941.50;6225118;23;20032;-83
2024/01/23 12:16:12;;;;;;;4.85;1.45;;;;;;;9.19;63.86;97942.75;6231571;23;20096;-83
2024/01/23 12:18:39;;;;;;;6.38;1.50;;;;;;;9.14;64.09;97935.34;6230551;23;20021;-82
2024/01/23 12:21:08;;;;;;;4.35;1.55;;;;;;;9.09;63.91;97942.72;6231871;23;20024;-81
2024/01/23 12:23:36;;;;;;;6.05;1.20;;;;;;;9.05;64.23;97947.41;6230552;23;20025;-83
2024/01/23 12:26:05;;;;;;;8.20;1.60;;;;;;;9.03;65.80;97959.75;6231909;23;20031;-84
2024/01/23 12:28:34;;;;;;;5.60;1.50;;;;;;;9.03;64.74;97954.53;6234016;23;20021;-81
2024/01/23 12:31:02;;;;;;;5.53;1.30;;;;;;;9.02;65.16;97957.28;6232842;23;20035;-80
2024/01/23 12:33:29;;;;;;;5.20;1.38;;;;;;;9.01;66.18;97950.44;6232280;23;20032;-81
2024/01/23 12:36:01;;;;;;;9.95;2.70;;;;;;;8.97;64.88;97949.88;6231933;23;20020;-83
2024/01/23 12:38:30;;;;;;;8.82;2.88;;;;;;;8.90;63.49;97950.56;6232080;23;20107;-82
2024/01/23 12:41:00;;;;;;;4.97;1.98;;;;;;;8.79;63.53;97946.31;6231954;23;20052;-83
2024/01/23 12:43:29;;;;;;;7.97;2.45;;;;;;;8.72;63.35;97940.84;6231029;23;20343;-80
2024/01/23 12:45:57;;;;;;;11.35;2.63;;;;;;;8.70;63.73;97947.13;6232721;23;20189;-84
2024/01/23 12:48:24;;;;;;;7.30;1.80;;;;;;;8.65;63.23;97942.34;6230916;23;20021;-81
2024/01/23 12:50:55;;;;;;;8.48;1.75;;;;;;;8.60;61.83;97944.53;6231862;23;20052;-80
2024/01/23 12:53:25;;;;;;;8.70;3.20;;;;;;;8.50;61.17;97962.72;6230142;23;20047;-83
2024/01/23 12:55:52;;;;;;;7.13;1.63;;;;;;;8.43;61.61;97948.63;6230558;23;20024;-81
2024/01/23 12:58:20;;;;;;;3.35;1.17;;;;;;;8.38;62.24;97940.38;6230192;23;20025;-85
2024/01/23 13:00:49;;;;;;;6.18;1.85;;;;;;;8.35;60.50;97938.88;6229451;23;20020;-83
2024/01/23 13:03:17;;;;;;;4.88;1.42;;;;;;;8.40;61.12;97941.94;6228686;23;20091;-81
2024/01/23 13:05:45;;;;;;;8.35;1.85;;;;;;;8.49;60.56;97942.09;6228984;23;20458;-81
2024/01/23 13:08:13;;;;;;;8.35;1.88;;;;;;;8.49;58.55;97932.50;6229298;23;20031;-83
2024/01/23 13:10:42;;;;;;;10.90;1.92;;;;;;;8.46;57.92;97945.75;6229078;23;20056;-84
2024/01/23 13:13:11;;;;;;;7.65;2.13;;;;;;;8.42;57.50;97934.81;6228370;23;20052;-83
2024/01/23 13:15:41;;;;;;;5.97;1.63;;;;;;;8.38;57.76;97924.78;6227975;23;20072;-81
2024/01/23 13:18:11;;;;;;;6.97;1.73;;;;;;;8.34;56.89;97910.41;6228102;23;20476;-81
2024/01/23 13:20:39;;;;;;;8.20;2.30;;;;;;;8.37;57.45;97920.53;6227968;23;20056;-80
2024/01/23 13:23:07;;;;;;;10.00;2.05;;;;;;;8.42;57.26;97913.19;6227350;23;20074;-79
2024/01/23 13:25:35;;;;;;;7.88;2.08;;;;;;;8.48;58.04;97923.03;6226886;23;20027;-83
2024/01/23 13:28:03;;;;;;;7.30;2.28;;;;;;;8.51;57.36;97922.78;6227859;23;20024;-84
2024/01/23 13:30:33;;;;;;;6.90;2.13;;;;;;;8.50;56.84;97917.72;6228141;23;20020;-79
2024/01/23 13:33:05;;;;;;;7.72;1.70;;;;;;;8.49;56.57;97926.47;6226852;23;20017;-80
2024/01/23 13:35:34;;;;;;;7.05;1.85;;;;;;;8.48;56.17;97930.84;6226719;23;20055;-79